createdAt,value
2022-11-05T00:00:41.860Z,81.59
2022-11-05T00:03:28.291Z,81.52
2022-11-05T00:06:15.691Z,81.19
2022-11-05T00:09:03.656Z,80.52
2022-11-05T00:11:51.197Z,80.60
2022-11-05T00:14:38.754Z,80.32
2022-11-05T00:17:08.510Z,80.15
2022-11-05T00:19:38.270Z,81.01
2022-11-05T00:22:26.184Z,80.97
2022-11-05T00:25:13.297Z,80.50
2022-11-05T00:27:44.189Z,80.83
2022-11-05T00:30:18.619Z,81.38
2022-11-05T00:32:50.695Z,80.93
2022-11-05T00:35:22.759Z,80.80
2022-11-05T00:37:54.570Z,80.49
2022-11-05T00:40:24.297Z,80.42
2022-11-05T00:43:12.213Z,80.97
2022-11-05T00:45:42.363Z,80.19
2022-11-05T00:48:29.885Z,80.88
2022-11-05T00:50:59.678Z,81.44
2022-11-05T00:53:29.541Z,80.68
2022-11-05T00:56:00.445Z,80.07
2022-11-05T00:58:30.289Z,80.07
2022-11-05T01:01:01.874Z,81.72
2022-11-05T01:03:34.665Z,81.23
2022-11-05T01:06:12.606Z,80.95
2022-11-05T01:08:44.023Z,81.73
2022-11-05T01:11:35.089Z,82.25
2022-11-05T01:14:09.792Z,81.74
2022-11-05T01:16:40.674Z,81.61
2022-11-05T01:19:11.856Z,81.47
2022-11-05T01:21:41.991Z,80.96
2022-11-05T01:24:12.274Z,80.96
2022-11-05T01:26:42.100Z,80.48
2022-11-05T01:29:12.642Z,80.36
2022-11-05T01:31:42.401Z,81.47
2022-11-05T01:34:11.843Z,81.85
2022-11-05T01:36:41.317Z,81.52
2022-11-05T01:39:11.091Z,81.20
2022-11-05T01:41:41.141Z,80.63
2022-11-05T01:44:49.206Z,80.62
2022-11-05T01:47:33.812Z,80.76
2022-11-05T01:50:20.825Z,80.34
2022-11-05T01:52:53.027Z,79.90
2022-11-05T01:55:25.834Z,80.82
2022-11-05T01:57:58.615Z,80.82
2022-11-05T02:00:28.349Z,81.17
2022-11-05T02:02:58.986Z,81.17
2022-11-05T02:05:29.436Z,81.28
2022-11-05T02:07:59.265Z,81.32
2022-11-05T02:10:29.765Z,80.76
2022-11-05T02:12:59.997Z,80.73
2022-11-05T02:15:32.760Z,80.41
2022-11-05T02:18:20.330Z,80.91
2022-11-05T02:21:10.452Z,80.91
2022-11-05T02:23:52.085Z,81.31
2022-11-05T02:26:24.879Z,80.98
2022-11-05T02:29:20.202Z,80.75
2022-11-05T02:32:11.993Z,80.61
2022-11-05T02:34:50.586Z,81.04
2022-11-05T02:37:41.158Z,81.27
2022-11-05T02:40:29.486Z,81.27
2022-11-05T02:43:20.202Z,81.00
2022-11-05T02:46:04.744Z,80.98
2022-11-05T02:48:46.527Z,81.17
2022-11-05T02:54:43.502Z,81.57
2022-11-05T02:57:13.301Z,81.27
2022-11-05T02:59:43.069Z,81.75
2022-11-05T03:02:13.620Z,81.97
2022-11-05T03:04:43.594Z,81.37
2022-11-05T03:07:25.347Z,81.79
2022-11-05T03:10:22.135Z,81.91
2022-11-05T03:13:06.830Z,82.05
2022-11-05T03:15:57.408Z,82.05
2022-11-05T03:18:44.852Z,81.63
2022-11-05T03:21:20.168Z,81.78
2022-11-05T03:23:58.244Z,82.29
2022-11-05T03:26:31.084Z,82.01
2022-11-05T03:29:13.315Z,82.76
2022-11-05T03:31:45.103Z,82.27
2022-11-05T03:34:16.629Z,82.53
2022-11-05T03:36:49.693Z,82.21
2022-11-05T03:39:37.377Z,82.21
2022-11-05T03:42:12.717Z,82.23
2022-11-05T03:44:45.803Z,81.74
2022-11-05T03:47:18.654Z,81.58
2022-11-05T03:49:57.270Z,82.23
2022-11-05T03:52:29.772Z,82.23
2022-11-05T03:55:00.470Z,82.11
2022-11-05T03:57:33.292Z,82.46
2022-11-05T04:00:04.713Z,82.51
2022-11-05T04:02:36.312Z,82.85
2022-11-05T04:05:09.703Z,82.72
2022-11-05T04:07:57.461Z,82.72
2022-11-05T04:10:44.640Z,82.82
2022-11-05T04:13:26.429Z,82.14
2022-11-05T04:16:15.372Z,82.67
2022-11-05T04:18:45.112Z,82.79
2022-11-05T04:21:32.894Z,83.17
2022-11-05T04:24:08.817Z,82.79
2022-11-05T04:26:44.967Z,82.72
2022-11-05T04:29:32.542Z,82.72
2022-11-05T04:32:02.261Z,82.82
2022-11-05T04:34:32.006Z,82.70
2022-11-05T04:37:01.775Z,82.76
2022-11-05T04:39:31.899Z,82.69
2022-11-05T04:42:01.804Z,82.78
2022-11-05T04:44:31.857Z,83.01
2022-11-05T04:47:01.362Z,82.92
2022-11-05T04:49:31.152Z,82.52
2022-11-05T04:52:00.905Z,82.43
2022-11-05T04:54:31.122Z,82.74
2022-11-05T04:57:01.138Z,83.39
2022-11-05T04:59:30.906Z,84.33
2022-11-05T05:02:00.697Z,83.93
2022-11-05T05:04:30.263Z,83.10
2022-11-05T05:07:00.123Z,83.10
2022-11-05T05:09:29.850Z,82.99
2022-11-05T05:11:59.645Z,83.48
2022-11-05T05:14:29.415Z,83.50
2022-11-05T05:16:59.256Z,83.25
2022-11-05T05:19:29.078Z,83.76
2022-11-05T05:21:58.935Z,83.15
2022-11-05T05:24:28.754Z,83.36
2022-11-05T05:26:58.253Z,84.29
2022-11-05T05:29:27.987Z,83.70
2022-11-05T05:31:57.751Z,83.17
2022-11-05T05:34:27.502Z,83.19
2022-11-05T05:36:57.241Z,83.08
2022-11-05T05:39:27.474Z,83.75
2022-11-05T05:41:57.401Z,83.53
2022-11-05T05:44:26.859Z,83.51
2022-11-05T05:46:56.657Z,84.57
2022-11-05T05:49:26.418Z,84.20
2022-11-05T05:51:56.763Z,83.88
2022-11-05T05:54:32.141Z,84.26
2022-11-05T05:56:58.185Z,84.46
2022-11-05T05:59:28.040Z,83.17
2022-11-05T06:01:58.389Z,82.92
2022-11-05T06:04:28.303Z,83.63
2022-11-05T06:06:58.084Z,82.85
2022-11-05T06:09:27.869Z,82.70
2022-11-05T06:11:57.622Z,82.87
2022-11-05T06:14:27.434Z,82.69
2022-11-05T06:16:57.233Z,82.69
2022-11-05T06:19:27.188Z,82.79
2022-11-05T06:21:56.934Z,82.90
2022-11-05T06:24:26.499Z,83.37
2022-11-05T06:26:56.301Z,83.13
2022-11-05T06:29:26.062Z,82.77
2022-11-05T06:31:55.933Z,82.67
2022-11-05T06:34:25.390Z,82.62
2022-11-05T06:36:55.413Z,82.92
2022-11-05T06:39:25.248Z,83.20
2022-11-05T06:44:26.530Z,83.00
2022-11-05T06:46:56.406Z,82.49
2022-11-05T06:49:26.784Z,82.74
2022-11-05T06:51:56.512Z,82.74
2022-11-05T06:54:26.447Z,83.43
2022-11-05T06:56:56.459Z,83.43
2022-11-05T06:59:26.295Z,83.70
2022-11-05T07:01:55.953Z,83.74
2022-11-05T07:04:25.922Z,83.43
2022-11-05T07:06:55.700Z,83.61
2022-11-05T07:09:25.888Z,83.04
2022-11-05T07:11:55.951Z,83.24
2022-11-05T07:14:25.902Z,83.02
2022-11-05T07:16:57.236Z,83.62
2022-11-05T07:19:27.009Z,83.09
2022-11-05T07:21:57.059Z,82.76
2022-11-05T07:24:26.555Z,83.70
2022-11-05T07:26:56.315Z,83.65
2022-11-05T07:29:26.097Z,83.07
2022-11-05T07:31:55.883Z,82.86
2022-11-05T07:34:25.665Z,83.01
2022-11-05T07:36:55.452Z,82.73
2022-11-05T07:39:25.199Z,82.87
2022-11-05T07:41:55.656Z,82.31
2022-11-05T07:44:26.956Z,82.64
2022-11-05T07:46:57.039Z,82.75
2022-11-05T07:49:26.478Z,82.29
2022-11-05T07:51:56.292Z,82.10
2022-11-05T07:54:26.762Z,82.40
2022-11-05T07:56:56.513Z,82.61
2022-11-05T07:59:26.304Z,82.20
2022-11-05T08:01:56.523Z,82.53
2022-11-05T08:04:26.734Z,81.52
2022-11-05T08:06:56.476Z,81.77
2022-11-05T08:09:26.324Z,82.11
2022-11-05T08:12:02.693Z,81.85
2022-11-05T08:14:28.626Z,81.82
2022-11-05T08:17:01.283Z,81.77
2022-11-05T08:19:30.762Z,81.35
2022-11-05T08:22:00.553Z,81.11
2022-11-05T08:24:30.323Z,80.64
2022-11-05T08:27:00.139Z,80.58
2022-11-05T08:29:29.636Z,80.99
2022-11-05T08:31:59.435Z,80.07
2022-11-05T08:34:29.279Z,79.67
2022-11-05T08:37:00.920Z,79.67
2022-11-05T08:39:30.789Z,79.39
2022-11-05T08:42:00.723Z,79.03
2022-11-05T08:44:30.748Z,78.43
2022-11-05T08:47:00.661Z,78.59
2022-11-05T08:49:30.435Z,78.29
2022-11-05T08:52:00.207Z,78.05
2022-11-05T08:54:29.954Z,76.91
2022-11-05T08:56:59.472Z,76.91
2022-11-05T08:59:29.799Z,77.09
2022-11-05T09:01:59.890Z,76.50
2022-11-05T09:04:29.423Z,76.86
2022-11-05T09:06:59.209Z,76.05
2022-11-05T09:09:29.253Z,77.19
2022-11-05T09:12:11.696Z,75.27
2022-11-05T09:14:31.500Z,75.32
2022-11-05T09:17:01.228Z,75.09
2022-11-05T09:19:30.744Z,74.25
2022-11-05T09:22:00.547Z,73.80
2022-11-05T09:24:30.876Z,74.86
2022-11-05T09:27:00.709Z,74.58
2022-11-05T09:29:30.481Z,73.75
2022-11-05T09:32:00.262Z,72.81
2022-11-05T09:34:30.097Z,72.81
2022-11-05T09:36:59.735Z,72.20
2022-11-05T09:39:30.055Z,72.57
2022-11-05T09:42:02.855Z,72.46
2022-11-05T09:44:41.103Z,70.36
2022-11-05T09:47:24.048Z,70.36
2022-11-05T09:49:56.335Z,70.70
2022-11-05T09:52:28.756Z,69.95
2022-11-05T09:54:59.025Z,70.76
2022-11-05T09:57:40.137Z,69.42
2022-11-05T10:02:56.416Z,68.67
2022-11-05T10:05:27.904Z,68.47
2022-11-05T10:08:00.691Z,67.87
2022-11-05T10:10:41.048Z,68.71
2022-11-05T10:13:39.360Z,67.25
2022-11-05T10:16:26.767Z,67.13
2022-11-05T10:19:19.138Z,66.84
2022-11-05T10:22:06.321Z,66.70
2022-11-05T10:24:22.263Z,65.60
2022-11-05T10:26:54.072Z,65.69
2022-11-05T10:29:32.356Z,65.42
2022-11-05T10:32:05.524Z,65.60
2022-11-05T10:34:37.937Z,64.40
2022-11-05T10:37:07.715Z,64.07
2022-11-05T10:39:38.024Z,64.07
2022-11-05T10:42:15.552Z,65.00
2022-11-05T10:44:51.070Z,65.00
2022-11-05T10:47:26.540Z,64.65
2022-11-05T10:50:15.636Z,63.95
2022-11-05T10:52:57.347Z,64.55
2022-11-05T10:55:33.212Z,64.85
2022-11-05T10:58:18.005Z,64.83
2022-11-05T11:00:53.664Z,64.52
2022-11-05T11:03:50.176Z,65.92
2022-11-05T11:06:28.461Z,65.32
2022-11-05T11:09:03.233Z,65.59
2022-11-05T11:11:39.024Z,65.80
2022-11-05T11:14:17.177Z,65.06
2022-11-05T11:16:51.155Z,65.46
2022-11-05T11:19:35.130Z,64.74
2022-11-05T11:22:10.797Z,65.69
2022-11-05T11:24:49.948Z,65.69
2022-11-05T11:27:25.916Z,65.76
2022-11-05T11:30:07.043Z,66.38
2022-11-05T11:32:40.887Z,65.89
2022-11-05T11:35:22.392Z,65.11
2022-11-05T11:37:54.552Z,65.59
2022-11-05T11:40:27.321Z,64.98
2022-11-05T11:42:59.472Z,65.68
2022-11-05T11:45:35.059Z,66.08
2022-11-05T11:48:09.210Z,66.18
2022-11-05T11:50:46.996Z,65.89
2022-11-05T11:53:22.686Z,66.64
2022-11-05T11:56:16.527Z,66.06
2022-11-05T11:58:51.305Z,65.41
2022-11-05T12:01:43.416Z,65.80
2022-11-05T12:04:28.038Z,65.11
2022-11-05T12:07:27.873Z,65.49
2022-11-05T12:10:04.249Z,65.50
2022-11-05T12:12:37.044Z,65.59
2022-11-05T12:15:23.188Z,65.66
2022-11-05T12:18:02.060Z,65.79
2022-11-05T12:20:43.386Z,64.90
2022-11-05T12:23:31.372Z,65.33
2022-11-05T12:26:06.664Z,64.82
2022-11-05T12:29:17.138Z,65.96
2022-11-05T12:31:44.611Z,65.72
2022-11-05T12:34:14.859Z,65.87
2022-11-05T12:36:55.992Z,65.75
2022-11-05T12:39:44.845Z,65.19
2022-11-05T12:42:42.883Z,65.10
2022-11-05T12:45:33.279Z,65.26
2022-11-05T12:48:09.011Z,64.78
2022-11-05T12:50:44.356Z,64.77
2022-11-05T12:56:10.000Z,61.33
2022-11-05T12:58:42.629Z,62.16
2022-11-05T13:01:18.454Z,62.00
2022-11-05T13:03:54.285Z,62.80
2022-11-05T13:06:26.769Z,62.69
2022-11-05T13:09:02.474Z,62.68
2022-11-05T13:11:37.552Z,63.28
2022-11-05T13:14:14.940Z,63.13
2022-11-05T13:17:05.681Z,63.79
2022-11-05T13:19:53.455Z,63.91
2022-11-05T13:22:38.112Z,63.93
2022-11-05T13:25:26.459Z,63.41
2022-11-05T13:28:26.296Z,63.54
2022-11-05T13:31:01.527Z,63.13
2022-11-05T13:33:34.634Z,63.01
2022-11-05T13:36:27.046Z,62.52
2022-11-05T13:39:11.653Z,62.12
2022-11-05T13:42:17.284Z,62.21
2022-11-05T13:44:55.820Z,62.17
2022-11-05T13:47:49.558Z,62.04
2022-11-05T13:50:50.333Z,61.76
2022-11-05T13:53:40.997Z,61.76
2022-11-05T13:56:35.594Z,62.43
2022-11-05T13:59:24.612Z,61.52
2022-11-05T14:02:03.086Z,61.93
2022-11-05T14:04:38.758Z,62.27
2022-11-05T14:07:14.640Z,62.27
2022-11-05T14:09:44.171Z,61.44
2022-11-05T14:12:22.667Z,61.96
2022-11-05T14:14:59.155Z,62.13
2022-11-05T14:17:31.266Z,62.46
2022-11-05T14:20:09.616Z,61.70
2022-11-05T14:22:43.349Z,61.61
2022-11-05T14:25:25.360Z,62.33
2022-11-05T14:27:55.210Z,62.77
2022-11-05T14:30:48.994Z,62.95
2022-11-05T14:33:31.533Z,62.48
2022-11-05T14:36:22.317Z,63.23
2022-11-05T14:39:03.981Z,63.57
2022-11-05T14:41:30.047Z,63.72
2022-11-05T14:44:02.825Z,63.34
2022-11-05T14:46:48.206Z,63.42
2022-11-05T14:49:23.773Z,63.60
2022-11-05T14:51:56.289Z,63.64
2022-11-05T14:54:29.410Z,63.81
2022-11-05T14:57:03.026Z,63.91
2022-11-05T14:59:35.337Z,63.80
2022-11-05T15:02:14.099Z,64.54
2022-11-05T15:04:45.694Z,64.78
2022-11-05T15:07:25.002Z,65.13
2022-11-05T15:09:57.787Z,65.13
2022-11-05T15:12:51.592Z,65.25
2022-11-05T15:15:29.880Z,65.25
2022-11-05T15:18:05.434Z,65.56
2022-11-05T15:20:41.081Z,65.56
2022-11-05T15:23:14.067Z,65.94
2022-11-05T15:25:53.162Z,65.82
2022-11-05T15:28:38.803Z,65.91
2022-11-05T15:31:14.031Z,65.36
2022-11-05T15:33:48.393Z,65.69
2022-11-05T15:36:29.343Z,65.83
2022-11-05T15:39:29.130Z,65.80
2022-11-05T15:41:48.437Z,65.96
2022-11-05T15:44:28.269Z,66.43
2022-11-05T15:47:19.287Z,66.46
2022-11-05T15:49:57.793Z,66.21
2022-11-05T15:52:36.434Z,66.31
2022-11-05T15:55:12.971Z,66.43
2022-11-05T15:57:51.663Z,66.73
2022-11-05T16:00:24.470Z,66.91
2022-11-05T16:03:06.706Z,67.26
2022-11-05T16:05:39.274Z,67.34
2022-11-05T16:08:16.840Z,67.34
2022-11-05T16:10:49.707Z,67.80
2022-11-05T16:13:31.698Z,67.40
2022-11-05T16:16:05.274Z,67.33
2022-11-05T16:18:38.527Z,67.77
2022-11-05T16:21:18.487Z,67.62
2022-11-05T16:23:51.534Z,68.18
2022-11-05T16:29:22.010Z,67.80
2022-11-05T16:31:54.672Z,67.97
2022-11-05T16:34:36.622Z,67.85
2022-11-05T16:37:08.909Z,68.17
2022-11-05T16:39:38.781Z,68.11
2022-11-05T16:42:28.926Z,68.46
2022-11-05T16:44:58.681Z,68.38
2022-11-05T16:47:28.451Z,68.79
2022-11-05T16:49:58.259Z,68.69
2022-11-05T16:52:28.047Z,68.98
2022-11-05T16:54:57.835Z,68.94
2022-11-05T16:57:30.882Z,69.06
2022-11-05T17:00:01.837Z,69.36
2022-11-05T17:02:31.723Z,69.72
2022-11-05T17:05:01.569Z,69.31
2022-11-05T17:07:31.346Z,69.02
2022-11-05T17:10:01.163Z,69.60
2022-11-05T17:12:30.611Z,69.80
2022-11-05T17:15:00.375Z,69.67
2022-11-05T17:17:30.436Z,70.36
2022-11-05T17:20:00.198Z,69.69
2022-11-05T17:22:29.940Z,69.62
2022-11-05T17:24:59.678Z,69.77
2022-11-05T17:27:29.431Z,70.32
2022-11-05T17:29:58.931Z,69.75
2022-11-05T17:32:28.764Z,69.90
2022-11-05T17:34:58.541Z,69.65
2022-11-05T17:37:28.359Z,70.35
2022-11-05T17:39:58.438Z,70.35
2022-11-05T17:42:28.116Z,69.74
2022-11-05T17:44:58.169Z,70.08
2022-11-05T17:47:28.627Z,70.11
2022-11-05T17:49:58.436Z,70.51
2022-11-05T17:52:29.478Z,70.61
2022-11-05T17:54:59.209Z,70.63
2022-11-05T17:57:29.048Z,71.06
2022-11-05T17:59:58.778Z,71.01
2022-11-05T18:02:29.583Z,71.23
2022-11-05T18:04:59.442Z,70.76
2022-11-05T18:07:29.203Z,70.79
2022-11-05T18:09:59.036Z,70.45
2022-11-05T18:12:28.899Z,71.23
2022-11-05T18:14:58.453Z,70.54
2022-11-05T18:17:28.310Z,70.92
2022-11-05T18:19:58.273Z,71.17
2022-11-05T18:22:28.006Z,71.23
2022-11-05T18:24:57.760Z,71.08
2022-11-05T18:27:27.997Z,72.11
2022-11-05T18:29:58.083Z,71.57
2022-11-05T18:32:27.659Z,71.71
2022-11-05T18:34:57.417Z,71.87
2022-11-05T18:37:27.196Z,71.93
2022-11-05T18:39:56.952Z,72.27
2022-11-05T18:42:26.755Z,71.91
2022-11-05T18:44:56.576Z,71.86
2022-11-05T18:47:26.420Z,72.53
2022-11-05T18:49:56.231Z,72.93
2022-11-05T18:52:26.535Z,72.56
2022-11-05T18:54:56.368Z,73.12
2022-11-05T18:57:26.282Z,72.67
2022-11-05T18:59:56.064Z,72.57
2022-11-05T19:02:25.728Z,72.75
2022-11-05T19:05:26.901Z,72.30
2022-11-05T19:07:27.122Z,72.37
2022-11-05T19:09:56.848Z,72.16
2022-11-05T19:12:26.602Z,71.96
2022-11-05T19:15:01.920Z,71.65
2022-11-05T19:17:27.816Z,72.44
2022-11-05T19:19:57.613Z,71.80
2022-11-05T19:22:27.764Z,72.18
2022-11-05T19:24:57.809Z,72.20
2022-11-05T19:27:27.561Z,72.20
2022-11-05T19:29:57.587Z,71.47
2022-11-05T19:32:27.716Z,71.47
2022-11-05T19:34:57.907Z,71.37
2022-11-05T19:37:27.701Z,71.48
2022-11-05T19:39:57.503Z,71.58
2022-11-05T19:42:28.087Z,71.98
2022-11-05T19:45:03.176Z,72.92
2022-11-05T19:47:29.105Z,71.96
2022-11-05T19:49:58.850Z,72.25
2022-11-05T19:52:28.656Z,72.24
2022-11-05T19:54:58.171Z,72.49
2022-11-05T19:57:28.684Z,72.63
2022-11-05T19:59:58.438Z,73.60
2022-11-05T20:02:28.619Z,72.95
2022-11-05T20:04:58.814Z,72.65
2022-11-05T20:07:28.570Z,73.24
2022-11-05T20:09:58.317Z,72.56
2022-11-05T20:12:27.792Z,72.90
2022-11-05T20:14:57.571Z,72.47
2022-11-05T20:17:27.407Z,73.13
2022-11-05T20:19:56.930Z,73.35
2022-11-05T20:22:26.691Z,73.16
2022-11-05T20:24:56.743Z,73.16
2022-11-05T20:27:26.537Z,73.16
2022-11-05T20:29:56.362Z,73.06
2022-11-05T20:32:27.392Z,73.17
2022-11-05T20:34:57.261Z,73.05
2022-11-05T20:37:27.051Z,73.05
2022-11-05T20:39:56.865Z,72.85
2022-11-05T20:42:26.442Z,73.31
2022-11-05T20:44:56.170Z,73.31
2022-11-05T20:47:25.917Z,73.00
2022-11-05T20:49:57.281Z,73.05
2022-11-05T20:52:29.703Z,73.91
2022-11-05T20:55:01.091Z,74.07
2022-11-05T20:57:30.925Z,73.27
2022-11-05T21:00:00.675Z,73.42
2022-11-05T21:02:30.591Z,73.41
2022-11-05T21:05:00.171Z,73.48
2022-11-05T21:07:29.983Z,73.30
2022-11-05T21:10:00.102Z,73.50
2022-11-05T21:12:29.872Z,73.49
2022-11-05T21:14:59.926Z,73.28
2022-11-05T21:17:29.727Z,73.57
2022-11-05T21:19:59.176Z,73.84
2022-11-05T21:22:28.874Z,73.62
2022-11-05T21:24:58.606Z,73.81
2022-11-05T21:27:28.534Z,73.95
2022-11-05T21:29:57.997Z,73.66
2022-11-05T21:32:27.771Z,73.79
2022-11-05T21:34:57.544Z,74.02
2022-11-05T21:37:27.519Z,73.42
2022-11-05T21:39:57.273Z,73.32
2022-11-05T21:42:26.750Z,73.43
2022-11-05T21:45:00.368Z,73.77
2022-11-05T21:47:29.277Z,74.31
2022-11-05T21:49:59.063Z,74.30
2022-11-05T21:52:46.604Z,74.52
2022-11-05T21:55:33.761Z,74.54
2022-11-05T21:58:23.827Z,74.19
2022-11-05T22:00:53.591Z,74.72
2022-11-05T22:03:23.654Z,75.25
2022-11-05T22:05:53.947Z,75.03
2022-11-05T22:08:23.482Z,74.57
2022-11-05T22:10:53.233Z,75.42
2022-11-05T22:13:23.029Z,75.43
2022-11-05T22:15:56.927Z,75.40
2022-11-05T22:18:26.750Z,75.40
2022-11-05T22:20:56.476Z,74.96
2022-11-05T22:23:26.237Z,75.08
2022-11-05T22:26:02.472Z,75.44
2022-11-05T22:28:32.053Z,75.42
2022-11-05T22:31:01.801Z,75.38
2022-11-05T22:33:32.548Z,75.96
2022-11-05T22:36:03.802Z,74.94
2022-11-05T22:38:33.933Z,74.94
2022-11-05T22:41:10.895Z,75.45
2022-11-05T22:43:40.828Z,76.27
2022-11-05T22:46:14.490Z,75.97
2022-11-05T22:48:45.061Z,75.33
2022-11-05T22:51:17.872Z,75.81
2022-11-05T22:53:48.210Z,76.39
2022-11-05T22:56:20.825Z,75.36
2022-11-05T22:58:51.627Z,75.09
2022-11-05T23:01:22.515Z,75.72
2022-11-05T23:03:54.466Z,76.17
2022-11-05T23:06:50.651Z,76.21
2022-11-05T23:09:52.851Z,76.37
2022-11-05T23:12:25.471Z,76.40
2022-11-05T23:14:57.484Z,76.58
2022-11-05T23:17:45.282Z,76.00
2022-11-05T23:20:40.678Z,75.99
2022-11-05T23:23:31.421Z,76.03
2022-11-05T23:26:03.954Z,76.63
2022-11-05T23:28:33.699Z,76.26
2022-11-05T23:31:20.756Z,75.90
2022-11-05T23:33:50.498Z,75.97
2022-11-05T23:36:38.188Z,75.40
2022-11-05T23:39:08.079Z,76.33
2022-11-05T23:41:55.173Z,75.54
2022-11-05T23:44:42.187Z,76.10
2022-11-05T23:47:29.449Z,76.38
2022-11-05T23:49:59.209Z,75.11
2022-11-05T23:52:28.951Z,75.88
2022-11-05T23:54:59.031Z,76.20
2022-11-05T23:57:28.786Z,76.60
2022-11-05T23:59:58.538Z,76.79
